TOURFACTS.DK  
Stats and Facts from Tour de France.

Tour de France 2017 starts in 2 days
  Riders   Stages   Teams   Summits   Yearly  


 
Search by year

 After:  2016 - Stage 21:
  14626 starters.
  5126 different riders.
  634 teams.
  2211 stages.
  454 restdays.
  436049.60 km.
  5622 abandonnees.


Top 3
Christopher Froome89:04:48
Romain Bardet89:08:53
Nairo Quintana89:09:09
Rafal Majka209 pt.
Thomas De Gendt130 pt.
Jarlinson Pantano ..121 pt.
Peter Sagan470 pt.
Marcel Kittel228 pt.
Michael Matthews199 pt.
Adam Yates89:09:30
Louis Meintjes89:11:46
Emanuel Buchmann89:52:28
Facts from Tour de France 2015
  |   Stages.  |   Stage winners.  |   Days in yellow  |   Average speed.  |   Route.  |   Teams.  |   All riders.  |   Rookies.  |   Withdrawls.  |  

  |   GC.  |   Polka  |   Green  |   White  |   Summits. (In tour)  |   Summits. (Points)  |   Miscellaneous.  |  

Stage 10 on 14 - 07 - 2015
         Owning:    Christopher Froome      Daniel Teklehaimanot      Peter Sagan      Peter Sagan  

Pick a stage:  1 2 3 4 5 6 7 8 10 11 12 13 14 15 16 17 18 19 20 21
  TarbesLa Pierre-Saint-Martin | Dist: 167.00 km.
Cat: 4Côte de BougarberBELKenneth Vanbilsen1 points 
Cat: 4Côte de VielleségureBELKenneth Vanbilsen1 points 
Cat: 4Côte de MontroyBELKenneth Vanbilsen1 points 
Cat: HCol de la Pierre-Saint-MartinKENChristopher Froome50 points 

Average speed for all riders in stage:  36,140 km./hr.
    Place:Name:Team:Time:Km/h:
KENChristopher FroomeGBRSky Procycling04:22:07  +  00:00:00=38,227 
AUSRichie PorteGBRSky Procycling04:23:06  +  00:00:59=38,084 
COLNairo QuintanaESPMovistar Team04:23:11  +  00:01:04=38,072 
4 NLDRobert GesinkNLDTeam Lotto NL - Jumbo04:23:40  +  00:01:33=38,003 
5 ESPAlejandro ValverdeESPMovistar Team04:24:08  +  00:02:01=37,935 
6 WALGeraint ThomasGBRSky Procycling04:24:08  +  00:02:01=37,935 
7 ENGAdam YatesAUSOrica - GreenEDGE04:24:11  +  00:02:04=37,928 
8 FRAPierre RollandFRATeam Europcar04:24:11  +  00:02:04=37,928 
9 FRATony GallopinBELLotto Soudal04:24:29  +  00:02:22=37,885 
10 USATejay Van GarderenUSABMC Racing Team04:24:37  +  00:02:30=37,866 
11 ESPAlberto ContadorRUSTinkoff Saxo04:24:58  +  00:02:51=37,816 
12 ESPRafael Valls FerriITALampre-Merida04:25:16  +  00:03:09=37,773 
13 CHEJakob FuglsangKAZAstana Pro Team04:25:16  +  00:03:09=37,773 
14 BELSerge PauwelsZAFMTN - Qhubeka P/B Samsung04:25:26  +  00:03:19=37,750 
15 FRAWarren BarguilDEUTeam Giant Alpecin04:25:26  +  00:03:19=37,750 
16 ESPSamuel SanchezUSABMC Racing Team04:26:07  +  00:04:00=37,653 
17 NLDBauke MollemaUSATrek Factory Racing04:26:16  +  00:04:09=37,631 
18 ZAFJacques Janse Van RensburgZAFMTN - Qhubeka P/B Samsung04:26:16  +  00:04:09=37,631 
19 ARGEduardo SepulvedaFRABretagne - Séché Environnement04:26:23  +  00:04:16=37,615 
20 USRTanel KangertKAZAstana Pro Team04:26:32  +  00:04:25=37,594 
21 ITAVincenzo NibaliKAZAstana Pro Team04:26:32  +  00:04:25=37,594 
22 NLDLaurens ten DamNLDTeam Lotto NL - Jumbo04:26:32  +  00:04:25=37,594 
23 CHEMathias FrankCHEIAM Cycling04:26:51  +  00:04:44=37,549 
24 ZAFLouis MeintjesZAFMTN - Qhubeka P/B Samsung04:27:45  +  00:05:38=37,423 
25 FRAJean-Christophe PeraudFRAAg2r La Mondiale04:27:45  +  00:05:38=37,423 
26 FRAThomas VoecklerFRATeam Europcar04:27:45  +  00:05:38=37,423 
27 FRAJérôme CoppelCHEIAM Cycling04:27:53  +  00:05:46=37,404 
28 COLRigoberto UranBELEtixx - Quick Step04:28:01  +  00:05:54=37,386 
29 AUSMichael RogersRUSTinkoff Saxo04:28:04  +  00:05:57=37,379 
30 ESPGorka Izaguirre InsaustiESPMovistar Team04:28:04  +  00:05:57=37,379 
31 FRAAlexis VuillermozFRAAg2r La Mondiale04:28:11  +  00:06:04=37,363 
32 NLDSteven KruijswijkNLDTeam Lotto NL - Jumbo04:28:11  +  00:06:04=37,363 
33 NLDWout PoelsGBRSky Procycling04:28:11  +  00:06:04=37,363 
34 ESPJoaquim RodriguezRUSTeam Katusha04:28:14  +  00:06:07=37,356 
35 ESPHaimar ZubeldiaUSATrek Factory Racing04:28:22  +  00:06:15=37,337 
36 DEUEmanuel BuchmannDEUBora-Argon 1804:28:35  +  00:06:28=37,307 
37 DEUDominik NerzDEUBora-Argon 1804:28:35  +  00:06:28=37,307 
38 POLBartosz HuzarskiDEUBora-Argon 1804:28:54  +  00:06:47=37,263 
39 FRABrice FeilluFRABretagne - Séché Environnement04:30:07  +  00:08:00=37,095 
40 COLJarlinson Pantano GomezCHEIAM Cycling04:30:07  +  00:08:00=37,095 
41 FRACyril GautierFRATeam Europcar04:30:18  +  00:08:11=37,070 
42 FRAGeoffrey SoupeFRACofidis – Solutions Crédits04:30:27  +  00:08:20=37,049 
43 BELJan BakelantsFRAAg2r La Mondiale04:30:57  +  00:08:50=36,981 
44 FRARomain BardetFRAAg2r La Mondiale04:30:57  +  00:08:50=36,981 
45 CANRyder HesjedalUSATeam Cannondale - Garmin04:30:57  +  00:08:50=36,981 
46 ITAGiampaolo CarusoRUSTeam Katusha04:30:57  +  00:08:50=36,981 
53 CHEMarcel WyssCHEIAM Cycling04:30:57  +  00:08:50=36,981 
54 DNKLars BakBELLotto Soudal04:30:57  +  00:08:50=36,981 
47 FRAMickaël CherelFRAAg2r La Mondiale04:31:22  +  00:09:15=36,924 
48 POLRafal MajkaRUSTinkoff Saxo04:31:59  +  00:09:52=36,840 
49 FRAThibaut PinotFRAFDJ04:32:10  +  00:10:03=36,816 
50 CHESteve MorabitoFRAFDJ04:32:10  +  00:10:03=36,816 
51 CZERoman KreuzigerRUSTinkoff Saxo04:32:10  +  00:10:03=36,816 
52 ITADamiano CarusoUSABMC Racing Team04:32:10  +  00:10:03=36,816 
55 NLDLieuwe WestraKAZAstana Pro Team04:33:09  +  00:11:02=36,683 
56 ESPJosé Herrada LópezESPMovistar Team04:33:40  +  00:11:33=36,614 
57 ENGDaniel MartinUSATeam Cannondale - Garmin04:33:41  +  00:11:34=36,612 
58 USAAndrew TalanskyUSATeam Cannondale - Garmin04:33:41  +  00:11:34=36,612 
59 FRAPierrick FédrigoFRABretagne - Séché Environnement04:33:56  +  00:11:49=36,578 
60 FRARomain SicardFRATeam Europcar04:34:19  +  00:12:12=36,527 
61 ERIMerhawi GhebremedhinZAFMTN - Qhubeka P/B Samsung04:34:19  +  00:12:12=36,527 
62 FRAAnthony DelaplaceFRABretagne - Séché Environnement04:34:44  +  00:12:37=36,472 
63 LUXBob JungelsUSATrek Factory Racing04:35:00  +  00:12:53=36,436 
64 ESPAlberto LosadaRUSTeam Katusha04:35:00  +  00:12:53=36,436 
65 ESPJonathan CastroviejoESPMovistar Team04:35:48  +  00:13:41=36,331 
66 FRAAlexandre GeniezFRAFDJ04:35:48  +  00:13:41=36,331 
67 FRAPerrig QuemeneurFRATeam Europcar04:35:48  +  00:13:41=36,331 
68 ESPMarkel IrizarUSATrek Factory Racing04:35:48  +  00:13:41=36,331 
69 COLWinner AnaconaESPMovistar Team04:35:48  +  00:13:41=36,331 
70 AUTGeorg PreidlerDEUTeam Giant Alpecin04:35:48  +  00:13:41=36,331 
71 NLDWilco KeldermanNLDTeam Lotto NL - Jumbo04:35:48  +  00:13:41=36,331 
72 FRAPierre-Luc PérichonFRABretagne - Séché Environnement04:35:48  +  00:13:41=36,331 
73 UKRAndriy GrivkoKAZAstana Pro Team04:35:48  +  00:13:41=36,331 
74 BELThomas De GendtBELLotto Soudal04:35:48  +  00:13:41=36,331 
75 FRANicolas RocheGBRSky Procycling04:35:58  +  00:13:51=36,309 
76 FRANicolas EdetFRACofidis – Solutions Crédits04:36:16  +  00:14:09=36,269 
77 DEUSimon GeschkeDEUTeam Giant Alpecin04:36:35  +  00:14:28=36,228 
78 PRTTiago PintoRUSTeam Katusha04:36:54  +  00:14:47=36,186 
79 FRAJérémy RoyFRAFDJ04:37:41  +  00:15:34=36,084 
80 DEUPaul VossDEUBora-Argon 1804:37:43  +  00:15:36=36,080 
81 CZELeopold KönigGBRSky Procycling04:37:52  +  00:15:45=36,060 
82 ITAMichele ScarponiKAZAstana Pro Team04:38:16  +  00:16:09=36,009 
83 ESPDaniel NavarroFRACofidis – Solutions Crédits04:38:47  +  00:16:40=35,942 
84 ESPLuis Angel MateFRACofidis – Solutions Crédits04:38:47  +  00:16:40=35,942 
85 BELStijn DevolderUSATrek Factory Racing04:38:47  +  00:16:40=35,942 
86 ESPRubén PlazaITALampre-Merida04:38:47  +  00:16:40=35,942 
87 HRVKristijan DurasekITALampre-Merida04:38:47  +  00:16:40=35,942 
88 PRTNelson OliveiraITALampre-Merida04:38:47  +  00:16:40=35,942 
89 IMNPeter KennaughGBRSky Procycling04:38:47  +  00:16:40=35,942 
90 PRTJosé João PimentaDEUBora-Argon 1804:38:47  +  00:16:40=35,942 
91 CHEMichael SchärUSABMC Racing Team04:38:47  +  00:16:40=35,942 
92 FRAArmindo FonsecaFRABretagne - Séché Environnement04:38:47  +  00:16:40=35,942 
93 NLDBram TankinkNLDTeam Lotto NL - Jumbo04:38:47  +  00:16:40=35,942 
94 ZAFReinardt Janse Van RensburgZAFMTN - Qhubeka P/B Samsung04:38:47  +  00:16:40=35,942 
95 SVNKristjan KorenUSATeam Cannondale - Garmin04:38:47  +  00:16:40=35,942 
96 NLDRoy CurversDEUTeam Giant Alpecin04:38:47  +  00:16:40=35,942 
97 FRASylvain ChavanelCHEIAM Cycling04:38:47  +  00:16:40=35,942 
98 CZEJan BártaDEUBora-Argon 1804:38:47  +  00:16:40=35,942 
99 ENGStephen CummingsZAFMTN - Qhubeka P/B Samsung04:38:47  +  00:16:40=35,942 
100 PRTRui CostaITALampre-Merida04:38:47  +  00:16:40=35,942 
101 NLDKoen De KortDEUTeam Giant Alpecin04:38:47  +  00:16:40=35,942 
102 CHEGregory RastUSATrek Factory Racing04:38:47  +  00:16:40=35,942 
103 FRAFrédéric BrunFRABretagne - Séché Environnement04:38:47  +  00:16:40=35,942 
104 KAZDmitriy GruzdevKAZAstana Pro Team04:38:47  +  00:16:40=35,942 
105 NOREdvald Boasson HagenZAFMTN - Qhubeka P/B Samsung04:38:47  +  00:16:40=35,942 
106 BELSep VanmarckeNLDTeam Lotto NL - Jumbo04:38:47  +  00:16:40=35,942 
107 DEUPaul MartensNLDTeam Lotto NL - Jumbo04:38:47  +  00:16:40=35,942 
108 DNKMichael ValgrenRUSTinkoff Saxo04:38:47  +  00:16:40=35,942 
109 CHEDanilo WyssUSABMC Racing Team04:38:47  +  00:16:40=35,942 
110 FRAFlorian VachonFRABretagne - Séché Environnement04:38:47  +  00:16:40=35,942 
111 NLDAlbert TimmerDEUTeam Giant Alpecin04:38:47  +  00:16:40=35,942 
112 ITAMatteo TosattoRUSTinkoff Saxo04:38:47  +  00:16:40=35,942 
113 ITADaniele BennatiRUSTinkoff Saxo04:38:47  +  00:16:40=35,942 
114 COLJulián ArredondoUSATrek Factory Racing04:42:00  +  00:19:53=35,532 
115 FRAAngelo TulikFRATeam Europcar04:42:00  +  00:19:53=35,532 
116 FRAYohann GèneFRATeam Europcar04:42:00  +  00:19:53=35,532 
117 BELGreg Van AvermaetUSABMC Racing Team04:42:00  +  00:19:53=35,532 
118 BELJens DebusschereBELLotto Soudal04:42:00  +  00:19:53=35,532 
119 ENGSimon YatesAUSOrica - GreenEDGE04:43:16  +  00:21:09=35,373 
120 NLDStef ClementCHEIAM Cycling04:43:41  +  00:21:34=35,321 
121 AUTMatthias BrändleCHEIAM Cycling04:43:41  +  00:21:34=35,321 
122 AUSNathan HaasUSATeam Cannondale - Garmin04:43:41  +  00:21:34=35,321 
123 ESPImanol ErvitiESPMovistar Team04:43:41  +  00:21:34=35,321 
124 USATyler FarrarZAFMTN - Qhubeka P/B Samsung04:43:41  +  00:21:34=35,321 
125 CHEMartin ElmigerCHEIAM Cycling04:43:41  +  00:21:34=35,321 
126 ITAAdriano MaloriESPMovistar Team04:43:41  +  00:21:34=35,321 
127 NLDRamon SinkeldamDEUTeam Giant Alpecin04:43:41  +  00:21:34=35,321 
128 CHEReto HollensteinCHEIAM Cycling04:43:41  +  00:21:34=35,321 
129 FRAFlorian SénéchalFRACofidis – Solutions Crédits04:43:41  +  00:21:34=35,321 
130 NLDPieter WeeningAUSOrica - GreenEDGE04:43:41  +  00:21:34=35,321 
131 BELJulien VermoteBELEtixx - Quick Step04:43:41  +  00:21:34=35,321 
132 ERIDaniel TeklehaimanotZAFMTN - Qhubeka P/B Samsung04:43:41  +  00:21:34=35,321 
133 POLMichal GolasBELEtixx - Quick Step04:43:41  +  00:21:34=35,321 
134 ENGAlex DowsettESPMovistar Team04:43:41  +  00:21:34=35,321 
135 NLDJos Van EmdenNLDTeam Lotto NL - Jumbo04:43:41  +  00:21:34=35,321 
136 AUSLuke DurbridgeAUSOrica - GreenEDGE04:43:41  +  00:21:34=35,321 
137 FRAChristophe RiblonFRAAg2r La Mondiale04:43:41  +  00:21:34=35,321 
138 FRAArnaud GérardFRABretagne - Séché Environnement04:43:41  +  00:21:34=35,321 
139 AUSRohan DennisUSABMC Racing Team04:44:04  +  00:21:57=35,273 
140 DEUJohn DegenkolbDEUTeam Giant Alpecin04:44:26  +  00:22:19=35,228 
141 ITAManuel QuinziatoUSABMC Racing Team04:44:29  +  00:22:22=35,222 
142 ITAFilippo PozzatoITALampre-Merida04:44:29  +  00:22:22=35,222 
143 FRAMatthieu LadagnousFRAFDJ04:44:29  +  00:22:22=35,222 
144 DEUMarcel SiebergBELLotto Soudal04:44:29  +  00:22:22=35,222 
145 DEUAndré GreipelBELLotto Soudal04:44:29  +  00:22:22=35,222 
146 ITAMatteo BonoITALampre-Merida04:44:29  +  00:22:22=35,222 
147 COLJosé SerpaITALampre-Merida04:44:29  +  00:22:22=35,222 
148 FRABryan NauleauFRATeam Europcar04:44:29  +  00:22:22=35,222 
149 ITADaniel OssUSABMC Racing Team04:44:29  +  00:22:22=35,222 
150 USRRein TaaramäeKAZAstana Pro Team04:44:29  +  00:22:22=35,222 
151 BELTim WellensBELLotto Soudal04:44:29  +  00:22:22=35,222 
152 FRABenoit VaugrenardFRAFDJ04:44:29  +  00:22:22=35,222 
153 FRAJulien SimonFRACofidis – Solutions Crédits04:44:29  +  00:22:22=35,222 
154 AUSAdam HansenBELLotto Soudal04:44:29  +  00:22:22=35,222 
155 ITAJacopo GuarnieriRUSTeam Katusha04:44:36  +  00:22:29=35,207 
156 FRADamien GaudinFRAAg2r La Mondiale04:44:36  +  00:22:29=35,207 
157 NORAlexander KristoffRUSTeam Katusha04:44:38  +  00:22:31=35,203 
158 SVKPeter SaganRUSTinkoff Saxo04:44:46  +  00:22:39=35,187 
159 POLMichal KwiatkowskiBELEtixx - Quick Step04:45:28  +  00:23:21=35,100 
160 CZEZdenek StybarBELEtixx - Quick Step04:45:28  +  00:23:21=35,100 
161 NLDDylan Van BaarleUSATeam Cannondale - Garmin04:45:28  +  00:23:21=35,100 
162 NLDSebastian LangeveldUSATeam Cannondale - Garmin04:45:28  +  00:23:21=35,100 
163 LUXLaurent DidierUSATrek Factory Racing04:45:28  +  00:23:21=35,100 
164 LUXBen GastauerFRAAg2r La Mondiale04:45:28  +  00:23:21=35,100 
165 BELSam BennettDEUBora-Argon 1804:45:28  +  00:23:21=35,100 
166 AUTMarco HallerRUSTeam Katusha04:45:28  +  00:23:21=35,100 
167 FRAChristophe LaporteFRACofidis – Solutions Crédits04:45:28  +  00:23:21=35,100 
168 BELKenneth VanbilsenFRACofidis – Solutions Crédits04:45:28  +  00:23:21=35,100 
169 WALLuke RoweGBRSky Procycling04:45:28  +  00:23:21=35,100 
170 FRABryan CoquardFRATeam Europcar04:45:28  +  00:23:21=35,100 
171 IMNMark CavendishBELEtixx - Quick Step04:45:28  +  00:23:21=35,100 
172 ITAMatteo TrentinBELEtixx - Quick Step04:45:28  +  00:23:21=35,100 
173 ENGIan StannardGBRSky Procycling04:45:28  +  00:23:21=35,100 
174 AUSMark RenshawBELEtixx - Quick Step04:45:28  +  00:23:21=35,100 
175 AUSZakkari DempsterDEUBora-Argon 1804:45:28  +  00:23:21=35,100 
176 USRRamunas NavardauskasUSATeam Cannondale - Garmin04:45:28  +  00:23:21=35,100 
177 CANSvein TuftAUSOrica - GreenEDGE04:45:28  +  00:23:21=35,100 
178 NLDTom LeezerNLDTeam Lotto NL - Jumbo04:45:28  +  00:23:21=35,100 
179 BELJohan VansummerenFRAAg2r La Mondiale04:45:28  +  00:23:21=35,100 
180 ITADavide CimolaiITALampre-Merida04:45:42  +  00:23:35=35,072 
181 FRAArnaud DémareFRAFDJ04:48:34  +  00:26:27=34,723 
182 AUSMichael MatthewsAUSOrica - GreenEDGE04:48:34  +  00:26:27=34,723 
183 FRASébastien ChavanelFRAFDJ04:51:22  +  00:29:15=34,390 

Withdrawls: 2
 
Rider
Team
Reason
2  NLDLars BoomKAZAstana Pro TeamDid not start
42  ITAIvan BassoRUSTinkoff SaxoDid not start

Todays birthdays.

1888  René Etien
1891  Arturo Ferrario
1913  Léon Theerlynck
1921  Roger Piel
1929  Antonio Ferraz
1930  Rizzardo Brenioli
1934  Orphée Meneghini
1943  Pietro Guerra
1961  Marc Somers
1964  Ettore Badolato
1967  Miguel Angel Martinez
1968  Davide Bramati
1981  Vasil Kiryienka